createdAt,value
2023-04-18T00:01:11.443Z,4.93
2023-04-18T00:03:39.556Z,5.70
2023-04-18T00:06:07.846Z,5.87
2023-04-18T00:08:36.470Z,7.67
2023-04-18T00:11:04.280Z,5.90
2023-04-18T00:13:33.684Z,6.13
2023-04-18T00:16:01.781Z,5.20
2023-04-18T00:18:29.437Z,5.67
2023-04-18T00:20:57.894Z,5.57
2023-04-18T00:23:37.151Z,5.77
2023-04-18T00:26:04.801Z,5.60
2023-04-18T00:28:34.036Z,5.27
2023-04-18T00:31:01.793Z,6.27
2023-04-18T00:33:29.487Z,5.87
2023-04-18T00:35:57.148Z,5.80
2023-04-18T00:38:24.765Z,6.20
2023-04-18T00:40:52.363Z,6.10
2023-04-18T00:43:26.813Z,5.80
2023-04-18T00:45:59.423Z,5.40
2023-04-18T00:48:27.401Z,5.30
2023-04-18T00:50:55.512Z,5.37
2023-04-18T00:53:23.216Z,6.33
2023-04-18T00:55:51.174Z,5.87
2023-04-18T00:58:20.944Z,5.77
2023-04-18T01:00:49.212Z,6.10
2023-04-18T01:03:19.182Z,6.27
2023-04-18T01:05:48.446Z,5.33
2023-04-18T01:08:18.110Z,5.40
2023-04-18T01:10:47.982Z,6.70
2023-04-18T01:13:17.408Z,5.60
2023-04-18T01:15:46.751Z,6.27
2023-04-18T01:18:17.032Z,6.17
2023-04-18T01:20:48.299Z,7.30
2023-04-18T01:23:16.632Z,6.73
2023-04-18T01:25:46.419Z,6.20
2023-04-18T01:28:16.801Z,6.33
2023-04-18T01:30:44.439Z,5.63
2023-04-18T01:33:12.312Z,6.80
2023-04-18T01:35:39.955Z,8.30
2023-04-18T01:38:07.837Z,5.90
2023-04-18T01:40:35.738Z,7.20
2023-04-18T01:43:06.036Z,7.20
2023-04-18T01:45:33.629Z,6.90
2023-04-18T01:48:01.376Z,6.20
2023-04-18T01:50:29.072Z,6.97
2023-04-18T01:52:56.669Z,6.93
2023-04-18T01:55:24.475Z,7.27
2023-04-18T01:57:52.673Z,8.10
2023-04-18T02:00:22.537Z,6.70
2023-04-18T02:02:50.999Z,6.70
2023-04-18T02:05:19.067Z,7.30
2023-04-18T02:07:47.628Z,7.30
2023-04-18T02:10:15.534Z,7.33
2023-04-18T02:12:43.108Z,7.60
2023-04-18T02:15:11.734Z,6.93
2023-04-18T02:17:42.064Z,7.57
2023-04-18T02:20:13.191Z,7.70
2023-04-18T02:22:40.751Z,7.17
2023-04-18T02:25:08.963Z,8.10
2023-04-18T02:27:36.613Z,7.70
2023-04-18T02:30:05.464Z,8.33
2023-04-18T02:32:33.123Z,7.30
2023-04-18T02:35:02.171Z,7.97
2023-04-18T02:37:29.805Z,8.10
2023-04-18T02:39:58.626Z,7.70
2023-04-18T02:42:27.326Z,8.30
2023-04-18T02:44:55.024Z,7.73
2023-04-18T02:47:22.675Z,7.87
2023-04-18T02:49:50.937Z,8.00
2023-04-18T02:52:22.814Z,8.17
2023-04-18T02:54:50.387Z,8.30
2023-04-18T02:57:18.352Z,8.20
2023-04-18T02:59:46.062Z,8.10
2023-04-18T03:02:13.774Z,8.43
2023-04-18T03:04:41.356Z,8.20
2023-04-18T03:07:08.970Z,8.90
2023-04-18T03:09:42.057Z,8.60
2023-04-18T03:12:10.121Z,9.00
2023-04-18T03:14:47.753Z,9.30
2023-04-18T03:17:15.807Z,9.43
2023-04-18T03:22:26.281Z,10.80
2023-04-18T03:24:55.336Z,9.63
2023-04-18T03:27:23.041Z,9.00
2023-04-18T03:29:51.000Z,7.90
2023-04-18T03:32:21.485Z,10.00
2023-04-18T03:34:49.775Z,8.80
2023-04-18T03:37:17.473Z,9.20
2023-04-18T03:39:45.067Z,9.50
2023-04-18T03:42:13.974Z,8.90
2023-04-18T03:44:41.593Z,10.87
2023-04-18T03:47:09.349Z,10.33
2023-04-18T03:49:37.088Z,10.37
2023-04-18T03:52:04.776Z,9.40
2023-04-18T03:54:32.666Z,9.40
2023-04-18T03:57:05.356Z,9.53
2023-04-18T03:59:34.416Z,10.37
2023-04-18T04:02:02.113Z,9.07
2023-04-18T04:04:31.433Z,9.50
2023-04-18T04:06:59.475Z,10.03
2023-04-18T04:09:27.143Z,9.10
2023-04-18T04:11:54.820Z,10.10
2023-04-18T04:14:22.850Z,9.93
2023-04-18T04:16:54.529Z,11.23
2023-04-18T04:19:22.102Z,10.53
2023-04-18T04:21:49.750Z,9.73
2023-04-18T04:24:17.423Z,10.90
2023-04-18T04:26:45.015Z,9.37
2023-04-18T04:29:13.777Z,9.80
2023-04-18T04:31:41.393Z,10.87
2023-04-18T04:34:13.645Z,10.50
2023-04-18T04:36:43.098Z,9.63
2023-04-18T04:39:11.321Z,10.27
2023-04-18T04:41:40.290Z,10.20
2023-04-18T04:44:10.395Z,9.90
2023-04-18T04:46:39.453Z,9.43
2023-04-18T04:49:10.299Z,9.60
2023-04-18T04:51:40.060Z,9.43
2023-04-18T04:54:10.375Z,10.00
2023-04-18T04:56:39.751Z,9.10
2023-04-18T04:59:07.759Z,9.50
2023-04-18T05:01:35.429Z,9.13
2023-04-18T05:04:03.546Z,9.80
2023-04-18T05:06:33.985Z,8.70
2023-04-18T05:09:05.240Z,9.37
2023-04-18T05:11:33.131Z,8.63
2023-04-18T05:14:00.790Z,8.53
2023-04-18T05:16:28.658Z,8.30
2023-04-18T05:18:56.578Z,8.50
2023-04-18T05:21:26.152Z,7.70
2023-04-18T05:23:54.051Z,8.63
2023-04-18T05:26:23.077Z,7.87
2023-04-18T05:28:50.692Z,8.20
2023-04-18T05:31:18.667Z,8.83
2023-04-18T05:33:46.273Z,8.37
2023-04-18T05:36:13.860Z,9.17
2023-04-18T05:38:41.547Z,7.83
2023-04-18T05:41:09.131Z,7.87
2023-04-18T05:43:38.056Z,7.93
2023-04-18T05:46:06.259Z,7.87
2023-04-18T05:48:34.050Z,8.50
2023-04-18T05:51:01.971Z,7.50
2023-04-18T05:53:29.683Z,8.20
2023-04-18T05:55:59.011Z,8.30
2023-04-18T05:58:28.681Z,8.33
2023-04-18T06:00:57.821Z,6.87
2023-04-18T06:03:25.835Z,6.93
2023-04-18T06:05:53.886Z,7.60
2023-04-18T06:08:21.518Z,7.43
2023-04-18T06:10:49.127Z,7.70
2023-04-18T06:13:16.916Z,8.33
2023-04-18T06:15:44.736Z,7.40
2023-04-18T06:18:13.849Z,7.30
2023-04-18T06:20:42.090Z,7.27
2023-04-18T06:23:09.728Z,7.77
2023-04-18T06:25:37.599Z,7.30
2023-04-18T06:28:05.604Z,8.80
2023-04-18T06:30:35.679Z,8.00
2023-04-18T06:33:03.346Z,7.50
2023-04-18T06:35:35.751Z,7.10
2023-04-18T06:38:03.331Z,8.23
2023-04-18T06:40:31.032Z,8.10
2023-04-18T06:42:58.899Z,7.47
2023-04-18T06:45:26.673Z,7.67
2023-04-18T06:47:54.446Z,6.80
2023-04-18T06:50:22.510Z,7.57
2023-04-18T06:52:51.774Z,8.17
2023-04-18T06:55:19.616Z,7.47
2023-04-18T06:57:47.224Z,6.97
2023-04-18T07:00:16.056Z,7.67
2023-04-18T07:02:44.108Z,7.50
2023-04-18T07:05:12.100Z,7.97
2023-04-18T07:07:40.188Z,7.00
2023-04-18T07:10:11.445Z,6.87
2023-04-18T07:12:42.176Z,7.57
2023-04-18T07:15:11.299Z,7.03
2023-04-18T07:17:39.039Z,7.03
2023-04-18T07:20:08.298Z,6.60
2023-04-18T07:22:35.884Z,7.37
2023-04-18T07:25:07.559Z,6.90
2023-04-18T07:27:46.608Z,6.67
2023-04-18T07:30:16.029Z,6.77
2023-04-18T07:32:43.882Z,6.43
2023-04-18T07:35:11.758Z,6.30
2023-04-18T07:37:39.528Z,6.13
2023-04-18T07:40:08.493Z,6.37
2023-04-18T07:42:36.079Z,5.90
2023-04-18T07:45:05.874Z,6.40
2023-04-18T07:47:37.615Z,5.80
2023-04-18T07:50:06.155Z,5.90
2023-04-18T07:52:37.298Z,6.40
2023-04-18T07:55:06.684Z,6.40
2023-04-18T07:57:34.929Z,5.80
2023-04-18T08:00:04.886Z,5.77
2023-04-18T08:02:34.488Z,5.83
2023-04-18T08:05:02.460Z,6.00
2023-04-18T08:07:30.456Z,6.30
2023-04-18T08:09:58.035Z,6.00
2023-04-18T08:12:25.629Z,5.47
2023-04-18T08:14:53.169Z,5.57
2023-04-18T08:17:20.910Z,5.97
2023-04-18T08:19:50.636Z,5.53
2023-04-18T08:22:18.249Z,6.67
2023-04-18T08:24:57.468Z,5.70
2023-04-18T08:27:31.906Z,5.73
2023-04-18T08:29:59.788Z,6.27
2023-04-18T08:32:27.450Z,6.00
2023-04-18T08:34:56.955Z,6.40
2023-04-18T08:37:28.077Z,5.93
2023-04-18T08:39:56.882Z,5.17
2023-04-18T08:42:24.815Z,6.03
2023-04-18T08:45:02.053Z,5.77
2023-04-18T08:47:30.389Z,5.50
2023-04-18T08:49:59.771Z,5.20
2023-04-18T08:52:31.211Z,5.97
2023-04-18T08:55:04.583Z,6.50
2023-04-18T08:57:33.364Z,6.40
2023-04-18T09:00:01.912Z,6.07
2023-04-18T09:02:39.239Z,5.50
2023-04-18T09:05:15.010Z,5.70
2023-04-18T09:07:43.931Z,5.37
2023-04-18T09:10:14.724Z,5.70
2023-04-18T09:12:50.327Z,5.53
2023-04-18T09:15:22.437Z,5.57
2023-04-18T09:17:53.364Z,5.37
2023-04-18T09:20:36.656Z,5.57
2023-04-18T09:23:11.041Z,5.47
2023-04-18T09:25:47.041Z,5.80
2023-04-18T09:28:26.987Z,5.07
2023-04-18T09:30:58.733Z,4.97
2023-04-18T09:33:29.115Z,4.57
2023-04-18T09:36:16.499Z,5.20
2023-04-18T09:38:44.457Z,5.40
2023-04-18T09:41:19.174Z,5.57
2023-04-18T09:43:49.301Z,7.10
2023-04-18T09:46:21.679Z,5.07
2023-04-18T09:48:49.408Z,5.00
2023-04-18T09:51:19.397Z,5.10
2023-04-18T09:53:47.595Z,5.20
2023-04-18T09:56:20.962Z,4.90
2023-04-18T09:58:56.018Z,4.67
2023-04-18T10:01:28.824Z,5.00
2023-04-18T10:03:58.126Z,5.10
2023-04-18T10:06:30.818Z,5.93
2023-04-18T10:09:00.400Z,5.27
2023-04-18T10:11:28.281Z,5.17
2023-04-18T10:13:59.410Z,4.67
2023-04-18T10:16:27.678Z,4.37
2023-04-18T10:18:56.569Z,4.60
2023-04-18T10:21:24.362Z,5.10
2023-04-18T10:23:53.507Z,4.93
2023-04-18T10:26:21.750Z,4.60
2023-04-18T10:28:55.119Z,4.53
2023-04-18T10:31:24.290Z,5.20
2023-04-18T10:36:28.558Z,4.50
2023-04-18T10:39:03.278Z,4.30
2023-04-18T10:41:32.122Z,4.43
2023-04-18T10:44:19.545Z,4.13
2023-04-18T10:47:33.565Z,4.10
2023-04-18T10:50:06.829Z,4.30
2023-04-18T10:52:35.298Z,4.60
2023-04-18T10:55:10.465Z,3.90
2023-04-18T10:57:42.172Z,4.43
2023-04-18T11:00:12.521Z,4.30
2023-04-18T11:02:41.296Z,5.50
2023-04-18T11:05:11.047Z,4.60
2023-04-18T11:07:40.942Z,4.70
2023-04-18T11:10:11.309Z,5.50
2023-04-18T11:12:40.961Z,4.57
2023-04-18T11:15:13.018Z,5.00
2023-04-18T11:17:41.724Z,5.27
2023-04-18T11:20:14.954Z,4.60
2023-04-18T11:22:48.278Z,5.50
2023-04-18T11:25:21.051Z,4.33
2023-04-18T11:27:54.314Z,4.00
2023-04-18T11:30:23.186Z,4.20
2023-04-18T11:32:51.549Z,4.50
2023-04-18T11:35:19.951Z,4.60
2023-04-18T11:37:50.252Z,4.20
2023-04-18T11:40:20.670Z,3.90
2023-04-18T11:42:48.490Z,3.80
2023-04-18T11:45:16.814Z,3.50
2023-04-18T11:47:46.916Z,3.37
2023-04-18T11:50:15.350Z,3.60
2023-04-18T11:52:43.494Z,4.00
2023-04-18T11:55:13.515Z,3.70
2023-04-18T11:57:42.861Z,3.57
2023-04-18T12:00:12.325Z,2.90
2023-04-18T12:02:44.646Z,3.87
2023-04-18T12:05:15.177Z,3.00
2023-04-18T12:07:46.283Z,3.57
2023-04-18T12:10:25.991Z,3.77
2023-04-18T12:12:59.676Z,3.40
2023-04-18T12:15:37.755Z,3.40
2023-04-18T12:18:11.660Z,3.57
2023-04-18T12:20:51.691Z,3.60
2023-04-18T12:23:36.344Z,3.47
2023-04-18T12:26:05.812Z,3.27
2023-04-18T12:28:40.093Z,3.57
2023-04-18T12:31:08.443Z,3.40
2023-04-18T12:33:37.013Z,3.17
2023-04-18T12:36:09.420Z,3.40
2023-04-18T12:38:38.288Z,3.20
2023-04-18T12:41:06.239Z,4.83
2023-04-18T12:43:37.268Z,3.27
2023-04-18T12:46:06.522Z,3.00
2023-04-18T12:48:34.323Z,2.87
2023-04-18T12:51:02.446Z,2.80
2023-04-18T12:53:29.968Z,3.20
2023-04-18T12:55:57.824Z,3.10
2023-04-18T12:58:26.022Z,2.67
2023-04-18T13:00:55.015Z,2.87
2023-04-18T13:03:27.187Z,2.87
2023-04-18T13:05:57.023Z,3.30
2023-04-18T13:08:30.049Z,2.63
2023-04-18T13:11:04.474Z,3.30
2023-04-18T13:13:33.850Z,3.20
2023-04-18T13:16:06.166Z,3.77
2023-04-18T13:18:37.181Z,3.00
2023-04-18T13:21:07.608Z,3.40
2023-04-18T13:23:36.786Z,3.27
2023-04-18T13:26:09.031Z,3.10
2023-04-18T13:28:36.949Z,3.40
2023-04-18T13:31:04.931Z,3.30
2023-04-18T13:33:32.678Z,3.33
2023-04-18T13:36:02.962Z,3.73
2023-04-18T13:38:33.700Z,3.10
2023-04-18T13:41:11.393Z,4.10
2023-04-18T13:43:40.902Z,3.63
2023-04-18T13:46:19.485Z,3.60
2023-04-18T13:48:47.232Z,3.17
2023-04-18T13:51:16.232Z,3.43
2023-04-18T13:53:43.879Z,3.67
2023-04-18T13:56:12.465Z,3.10
2023-04-18T13:58:40.123Z,3.60
2023-04-18T14:01:07.894Z,4.43
2023-04-18T14:03:40.628Z,4.73
2023-04-18T14:06:09.931Z,4.10
2023-04-18T14:08:39.973Z,4.30
2023-04-18T14:11:07.822Z,5.30
2023-04-18T14:13:35.824Z,4.97
2023-04-18T14:16:06.609Z,4.80
2023-04-18T14:18:35.557Z,5.40
2023-04-18T14:21:03.708Z,4.90
2023-04-18T14:23:31.590Z,5.90
2023-04-18T14:26:01.301Z,5.70
2023-04-18T14:28:29.261Z,6.27
2023-04-18T14:30:59.938Z,6.30
2023-04-18T14:33:53.829Z,6.17
2023-04-18T14:36:23.785Z,6.63
2023-04-18T14:38:51.417Z,6.50
2023-04-18T14:41:21.793Z,6.60
2023-04-18T14:43:50.057Z,7.30
2023-04-18T14:46:18.254Z,6.80
2023-04-18T14:48:48.731Z,7.30
2023-04-18T14:51:18.034Z,6.47
2023-04-18T14:53:47.278Z,6.27
2023-04-18T14:56:16.018Z,6.00
2023-04-18T14:58:45.127Z,5.87
2023-04-18T15:01:15.149Z,6.50
2023-04-18T15:03:44.119Z,5.97
2023-04-18T15:06:12.440Z,6.30
2023-04-18T15:08:40.824Z,6.77
2023-04-18T15:11:09.688Z,5.97
2023-04-18T15:13:37.874Z,6.10
2023-04-18T15:16:09.509Z,7.00
2023-04-18T15:18:39.820Z,6.60
2023-04-18T15:21:07.520Z,7.00
2023-04-18T15:23:36.869Z,6.80
2023-04-18T15:26:07.682Z,7.20
2023-04-18T15:28:37.516Z,7.80
2023-04-18T15:31:09.529Z,7.37
2023-04-18T15:33:42.546Z,7.73
2023-04-18T15:36:10.966Z,7.17
2023-04-18T15:41:26.232Z,6.90
2023-04-18T15:43:54.162Z,7.60
2023-04-18T15:46:23.302Z,7.17
2023-04-18T15:48:51.079Z,8.13
2023-04-18T15:51:18.957Z,6.40
2023-04-18T15:53:47.128Z,6.70
2023-04-18T15:56:15.013Z,7.27
2023-04-18T15:58:43.045Z,6.83
2023-04-18T16:01:13.083Z,7.10
2023-04-18T16:03:46.224Z,6.57
2023-04-18T16:06:17.665Z,6.60
2023-04-18T16:08:46.529Z,6.37
2023-04-18T16:11:31.971Z,6.40
2023-04-18T16:13:59.685Z,6.60
2023-04-18T16:16:29.434Z,5.53
2023-04-18T16:19:26.606Z,6.23
2023-04-18T16:21:59.675Z,6.53
2023-04-18T16:25:09.533Z,6.33
2023-04-18T16:27:37.307Z,6.00
2023-04-18T16:30:06.381Z,6.43
2023-04-18T16:32:37.362Z,6.97
2023-04-18T16:37:53.625Z,6.10
2023-04-18T16:40:30.707Z,5.87
2023-04-18T16:43:01.485Z,5.80
2023-04-18T16:45:37.967Z,5.47
2023-04-18T16:48:09.634Z,5.90
2023-04-18T16:50:39.857Z,6.23
2023-04-18T16:53:08.825Z,5.70
2023-04-18T16:55:36.541Z,5.60
2023-04-18T16:58:11.962Z,5.70
2023-04-18T17:00:48.521Z,6.30
2023-04-18T17:03:17.976Z,4.67
2023-04-18T17:05:49.652Z,5.20
2023-04-18T17:11:39.682Z,5.83
2023-04-18T17:14:24.812Z,5.00
2023-04-18T17:16:57.260Z,5.43
2023-04-18T17:19:28.454Z,5.10
2023-04-18T17:22:10.339Z,4.90
2023-04-18T17:25:11.691Z,5.23
2023-04-18T17:27:43.508Z,4.80
2023-04-18T17:30:40.549Z,5.47
2023-04-18T17:33:14.090Z,5.23
2023-04-18T17:36:14.946Z,5.63
2023-04-18T17:39:01.239Z,5.67
2023-04-18T17:41:33.018Z,5.80
2023-04-18T17:44:05.746Z,5.50
2023-04-18T17:46:51.863Z,5.33
2023-04-18T17:52:50.861Z,6.87
2023-04-18T17:55:22.606Z,6.03
2023-04-18T17:57:51.141Z,6.30
2023-04-18T18:00:43.006Z,5.50
2023-04-18T18:03:23.641Z,5.80
2023-04-18T18:06:09.489Z,6.37
2023-04-18T18:11:43.287Z,6.37
2023-04-18T18:14:31.714Z,6.10
2023-04-18T18:17:04.612Z,6.03
2023-04-18T18:19:45.345Z,6.20
2023-04-18T18:23:11.960Z,6.30
2023-04-18T18:25:48.966Z,6.57
2023-04-18T18:28:55.177Z,6.30
2023-04-18T18:37:52.899Z,6.47
2023-04-18T18:40:24.069Z,6.50
2023-04-18T18:42:55.098Z,7.20
2023-04-18T18:45:25.858Z,6.93
2023-04-18T18:47:54.315Z,6.07
2023-04-18T18:50:39.997Z,7.10
2023-04-18T18:53:09.965Z,7.40
2023-04-18T18:55:40.912Z,7.57
2023-04-18T18:58:13.093Z,6.73
2023-04-18T19:00:40.999Z,6.80
2023-04-18T19:05:56.477Z,7.10
2023-04-18T19:11:29.116Z,6.70
2023-04-18T19:13:58.146Z,6.70
2023-04-18T19:16:28.800Z,6.43
2023-04-18T19:18:56.561Z,6.73
2023-04-18T19:24:22.185Z,6.60
2023-04-18T19:29:37.108Z,7.27
2023-04-18T19:32:09.062Z,6.87
2023-04-18T19:34:37.085Z,6.07
2023-04-18T19:37:09.345Z,6.90
2023-04-18T19:39:36.990Z,7.53
2023-04-18T19:42:06.569Z,7.07
2023-04-18T19:44:34.128Z,7.13
2023-04-18T19:47:05.975Z,7.10
2023-04-18T19:49:41.581Z,6.20
2023-04-18T19:52:11.131Z,7.03
2023-04-18T19:54:38.736Z,6.53
2023-04-18T19:57:06.353Z,7.20
2023-04-18T19:59:33.975Z,6.07
2023-04-18T20:02:05.053Z,6.60
2023-04-18T20:04:34.292Z,7.30
2023-04-18T20:07:04.362Z,7.03
2023-04-18T20:09:45.684Z,6.30
2023-04-18T20:12:17.335Z,6.73
2023-04-18T20:14:45.481Z,6.43
2023-04-18T20:17:31.496Z,6.83
2023-04-18T20:20:11.526Z,6.70
2023-04-18T20:22:41.814Z,7.30
2023-04-18T20:25:11.084Z,5.87
2023-04-18T20:27:38.863Z,5.37
2023-04-18T20:30:13.959Z,5.97
2023-04-18T20:32:41.631Z,6.57
2023-04-18T20:35:09.759Z,6.07
2023-04-18T20:37:38.985Z,6.27
2023-04-18T20:40:10.888Z,6.07
2023-04-18T20:42:40.320Z,5.67
2023-04-18T20:45:11.495Z,5.73
2023-04-18T20:47:41.105Z,6.47
2023-04-18T20:50:18.540Z,5.33
2023-04-18T20:52:46.549Z,5.77
2023-04-18T20:55:16.688Z,6.03
2023-04-18T20:57:45.746Z,6.43
2023-04-18T21:00:15.906Z,5.67
2023-04-18T21:02:44.828Z,6.53
2023-04-18T21:05:12.574Z,5.37
2023-04-18T21:07:40.228Z,5.83
2023-04-18T21:10:09.971Z,5.60
2023-04-18T21:12:38.251Z,5.60
2023-04-18T21:17:43.302Z,5.67
2023-04-18T21:20:14.439Z,5.87
2023-04-18T21:22:42.337Z,5.90
2023-04-18T21:25:14.171Z,5.17
2023-04-18T21:27:42.000Z,5.27
2023-04-18T21:30:10.317Z,5.57
2023-04-18T21:32:41.386Z,5.33
2023-04-18T21:35:16.098Z,5.67
2023-04-18T21:37:45.280Z,5.10
2023-04-18T21:40:17.968Z,5.87
2023-04-18T21:42:52.095Z,4.93
2023-04-18T21:45:21.391Z,5.43
2023-04-18T21:47:52.946Z,5.10
2023-04-18T21:50:26.844Z,4.47
2023-04-18T21:52:55.820Z,4.97
2023-04-18T21:55:27.103Z,4.87
2023-04-18T21:58:00.170Z,5.80
2023-04-18T22:00:36.532Z,5.13
2023-04-18T22:03:11.493Z,5.30
2023-04-18T22:05:42.424Z,4.93
2023-04-18T22:08:15.095Z,5.17
2023-04-18T22:10:49.946Z,4.70
2023-04-18T22:13:19.321Z,4.87
2023-04-18T22:15:53.661Z,5.00
2023-04-18T22:18:24.495Z,5.00
2023-04-18T22:29:11.472Z,4.30
2023-04-18T22:31:52.188Z,4.57
2023-04-18T22:34:36.841Z,4.97
2023-04-18T22:37:09.150Z,4.63
2023-04-18T22:45:18.108Z,4.20
2023-04-18T22:48:17.581Z,4.60
2023-04-18T22:51:01.959Z,4.50
2023-04-18T22:59:27.108Z,4.40
2023-04-18T23:02:09.280Z,4.40
2023-04-18T23:07:43.290Z,3.70
2023-04-18T23:10:15.972Z,4.40
2023-04-18T23:12:45.855Z,4.30
2023-04-18T23:18:03.512Z,3.90
2023-04-18T23:26:05.634Z,3.60
2023-04-18T23:28:34.144Z,3.83
2023-04-18T23:31:02.868Z,3.87
2023-04-18T23:33:33.753Z,3.67
2023-04-18T23:36:01.600Z,4.20
2023-04-18T23:38:29.301Z,3.90
2023-04-18T23:40:57.461Z,4.70
2023-04-18T23:43:25.529Z,4.03
2023-04-18T23:45:56.331Z,4.23
2023-04-18T23:48:26.432Z,4.17
2023-04-18T23:50:56.840Z,3.50
2023-04-18T23:53:24.856Z,4.30
2023-04-18T23:55:54.853Z,4.37
2023-04-18T23:58:22.554Z,4.00
